sensor_id;sensor_type;location;lat;lon;timestamp;pressure;altitude;pressure_sealevel;temperature;humidity
3917;BME280;1973;50.518;7.318;2023-04-06T00:02:20;101198.19;;;3.70;80.07
3917;BME280;1973;50.518;7.318;2023-04-06T00:04:47;101191.91;;;3.69;80.07
3917;BME280;1973;50.518;7.318;2023-04-06T00:07:13;101194.78;;;3.68;80.05
3917;BME280;1973;50.518;7.318;2023-04-06T00:09:39;101196.13;;;3.64;82.03
3917;BME280;1973;50.518;7.318;2023-04-06T00:12:06;101188.09;;;3.62;80.83
3917;BME280;1973;50.518;7.318;2023-04-06T00:14:32;101186.91;;;3.57;82.38
3917;BME280;1973;50.518;7.318;2023-04-06T00:16:59;101188.22;;;3.53;83.76
3917;BME280;1973;50.518;7.318;2023-04-06T00:19:26;101179.84;;;3.46;84.79
3917;BME280;1973;50.518;7.318;2023-04-06T00:21:52;101183.06;;;3.41;84.17
3917;BME280;1973;50.518;7.318;2023-04-06T00:24:19;101177.22;;;3.36;83.54
3917;BME280;1973;50.518;7.318;2023-04-06T00:26:45;101183.00;;;3.33;83.62
3917;BME280;1973;50.518;7.318;2023-04-06T00:29:12;101175.16;;;3.30;84.76
3917;BME280;1973;50.518;7.318;2023-04-06T00:31:38;101175.63;;;3.26;87.21
3917;BME280;1973;50.518;7.318;2023-04-06T00:34:05;101171.38;;;3.23;86.56
3917;BME280;1973;50.518;7.318;2023-04-06T00:36:32;101172.38;;;3.22;87.28
3917;BME280;1973;50.518;7.318;2023-04-06T00:38:58;101178.84;;;3.21;87.31
3917;BME280;1973;50.518;7.318;2023-04-06T00:41:25;101161.81;;;3.19;87.38
3917;BME280;1973;50.518;7.318;2023-04-06T00:43:51;101175.41;;;3.19;88.89
3917;BME280;1973;50.518;7.318;2023-04-06T00:46:18;101166.41;;;3.19;89.22
3917;BME280;1973;50.518;7.318;2023-04-06T00:48:44;101171.69;;;3.20;88.65
3917;BME280;1973;50.518;7.318;2023-04-06T00:51:11;101160.97;;;3.19;88.40
3917;BME280;1973;50.518;7.318;2023-04-06T00:53:37;101156.69;;;3.16;89.56
3917;BME280;1973;50.518;7.318;2023-04-06T00:56:04;101153.25;;;3.14;88.95
3917;BME280;1973;50.518;7.318;2023-04-06T00:58:31;101150.19;;;3.09;90.70
3917;BME280;1973;50.518;7.318;2023-04-06T01:00:57;101155.78;;;3.08;90.27
3917;BME280;1973;50.518;7.318;2023-04-06T01:03:24;101146.06;;;3.05;90.57
3917;BME280;1973;50.518;7.318;2023-04-06T06:45:38;101117.38;;;2.67;100.00
3917;BME280;1973;50.518;7.318;2023-04-06T06:48:05;101117.69;;;2.82;100.00
3917;BME280;1973;50.518;7.318;2023-04-06T06:50:31;101102.69;;;2.96;100.00
3917;BME280;1973;50.518;7.318;2023-04-06T06:52:58;101097.50;;;3.10;100.00
3917;BME280;1973;50.518;7.318;2023-04-06T06:55:24;101107.09;;;3.22;100.00
3917;BME280;1973;50.518;7.318;2023-04-06T06:57:53;101103.75;;;3.36;100.00
3917;BME280;1973;50.518;7.318;2023-04-06T07:00:19;101098.41;;;3.53;100.00
3917;BME280;1973;50.518;7.318;2023-04-06T07:02:48;101089.28;;;3.70;100.00
3917;BME280;1973;50.518;7.318;2023-04-06T07:05:15;101093.09;;;3.85;100.00
3917;BME280;1973;50.518;7.318;2023-04-06T07:07:49;101093.16;;;4.01;100.00
3917;BME280;1973;50.518;7.318;2023-04-06T07:10:16;101091.50;;;4.16;100.00
3917;BME280;1973;50.518;7.318;2023-04-06T07:12:42;101079.78;;;4.32;100.00
3917;BME280;1973;50.518;7.318;2023-04-06T07:15:09;101076.91;;;4.50;100.00
3917;BME280;1973;50.518;7.318;2023-04-06T07:17:35;101085.25;;;4.64;100.00
3917;BME280;1973;50.518;7.318;2023-04-06T07:20:02;101074.66;;;4.77;100.00
3917;BME280;1973;50.518;7.318;2023-04-06T07:22:29;101072.97;;;4.93;100.00
3917;BME280;1973;50.518;7.318;2023-04-06T07:24:55;101076.19;;;5.04;100.00
3917;BME280;1973;50.518;7.318;2023-04-06T07:27:22;101082.63;;;5.19;100.00
3917;BME280;1973;50.518;7.318;2023-04-06T07:29:48;101083.13;;;5.31;100.00
3917;BME280;1973;50.518;7.318;2023-04-06T07:32:15;101087.19;;;5.43;100.00
3917;BME280;1973;50.518;7.318;2023-04-06T07:34:41;101086.63;;;5.56;100.00
3917;BME280;1973;50.518;7.318;2023-04-06T07:37:07;101080.41;;;5.70;100.00
3917;BME280;1973;50.518;7.318;2023-04-06T07:39:34;101076.63;;;5.79;99.90
3917;BME280;1973;50.518;7.318;2023-04-06T07:42:01;101074.19;;;5.92;98.88
3917;BME280;1973;50.518;7.318;2023-04-06T07:44:27;101081.63;;;6.06;98.05
3917;BME280;1973;50.518;7.318;2023-04-06T07:46:54;101074.44;;;6.13;96.35
3917;BME280;1973;50.518;7.318;2023-04-06T07:49:21;101068.75;;;6.23;95.90
3917;BME280;1973;50.518;7.318;2023-04-06T07:51:49;101067.84;;;6.30;94.90
3917;BME280;1973;50.518;7.318;2023-04-06T07:54:15;101070.81;;;6.44;94.06
3917;BME280;1973;50.518;7.318;2023-04-06T07:56:42;101059.69;;;6.45;92.77
3917;BME280;1973;50.518;7.318;2023-04-06T07:59:08;101059.56;;;6.61;93.00
3917;BME280;1973;50.518;7.318;2023-04-06T08:01:35;101053.28;;;6.75;91.46
3917;BME280;1973;50.518;7.318;2023-04-06T08:04:01;101052.91;;;6.78;89.26
3917;BME280;1973;50.518;7.318;2023-04-06T08:06:28;101052.56;;;6.96;88.00
3917;BME280;1973;50.518;7.318;2023-04-06T08:08:55;101053.44;;;7.11;86.73
3917;BME280;1973;50.518;7.318;2023-04-06T08:11:22;101048.38;;;7.23;86.30
3917;BME280;1973;50.518;7.318;2023-04-06T08:13:48;101047.44;;;7.45;85.93
3917;BME280;1973;50.518;7.318;2023-04-06T08:16:15;101043.34;;;7.56;83.03
3917;BME280;1973;50.518;7.318;2023-04-06T08:18:41;101039.09;;;7.68;81.70
3917;BME280;1973;50.518;7.318;2023-04-06T08:21:08;101044.75;;;7.81;80.80
3917;BME280;1973;50.518;7.318;2023-04-06T08:23:34;101031.78;;;7.90;79.20
3917;BME280;1973;50.518;7.318;2023-04-06T08:26:01;101043.00;;;7.95;78.38
3917;BME280;1973;50.518;7.318;2023-04-06T08:28:27;101027.81;;;8.13;77.06
3917;BME280;1973;50.518;7.318;2023-04-06T08:30:54;101031.00;;;8.31;76.17
3917;BME280;1973;50.518;7.318;2023-04-06T08:33:20;101028.00;;;8.48;74.39
3917;BME280;1973;50.518;7.318;2023-04-06T08:35:46;101027.94;;;8.62;74.83
3917;BME280;1973;50.518;7.318;2023-04-06T08:38:13;101019.44;;;8.78;73.94
3917;BME280;1973;50.518;7.318;2023-04-06T08:40:40;101022.94;;;8.94;72.81
3917;BME280;1973;50.518;7.318;2023-04-06T08:43:09;101023.44;;;9.04;70.86
3917;BME280;1973;50.518;7.318;2023-04-06T08:45:40;101022.03;;;9.14;71.23
3917;BME280;1973;50.518;7.318;2023-04-06T08:48:06;101020.72;;;9.10;70.71
3917;BME280;1973;50.518;7.318;2023-04-06T08:50:35;101023.34;;;9.25;70.53
3917;BME280;1973;50.518;7.318;2023-04-06T08:53:02;101020.84;;;9.23;70.20
3917;BME280;1973;50.518;7.318;2023-04-06T08:55:29;101015.56;;;9.28;69.39
3917;BME280;1973;50.518;7.318;2023-04-06T08:57:56;101013.91;;;9.34;69.05
3917;BME280;1973;50.518;7.318;2023-04-06T09:00:24;101015.00;;;9.40;68.94
3917;BME280;1973;50.518;7.318;2023-04-06T09:02:53;101025.13;;;9.39;67.71
3917;BME280;1973;50.518;7.318;2023-04-06T09:05:23;101023.09;;;9.48;66.89
3917;BME280;1973;50.518;7.318;2023-04-06T09:07:51;101018.13;;;9.64;68.13
3917;BME280;1973;50.518;7.318;2023-04-06T09:10:18;101014.56;;;9.77;67.99
3917;BME280;1973;50.518;7.318;2023-04-06T09:12:45;101018.19;;;9.84;67.56
3917;BME280;1973;50.518;7.318;2023-04-06T09:15:21;101015.66;;;9.83;64.19
3917;BME280;1973;50.518;7.318;2023-04-06T09:17:50;101022.91;;;10.03;66.04
3917;BME280;1973;50.518;7.318;2023-04-06T09:20:24;101007.31;;;10.17;64.45
3917;BME280;1973;50.518;7.318;2023-04-06T09:22:55;101015.81;;;10.29;64.21
3917;BME280;1973;50.518;7.318;2023-04-06T09:25:23;101003.34;;;10.39;63.05
3917;BME280;1973;50.518;7.318;2023-04-06T09:28:00;100999.34;;;10.55;60.50
3917;BME280;1973;50.518;7.318;2023-04-06T09:30:27;100994.69;;;10.62;61.66
3917;BME280;1973;50.518;7.318;2023-04-06T09:32:57;100993.84;;;10.81;61.20
3917;BME280;1973;50.518;7.318;2023-04-06T09:35:24;100991.50;;;10.91;60.79
3917;BME280;1973;50.518;7.318;2023-04-06T09:37:53;100990.22;;;11.07;59.94
3917;BME280;1973;50.518;7.318;2023-04-06T09:40:20;100983.19;;;11.24;59.48
3917;BME280;1973;50.518;7.318;2023-04-06T09:42:49;100994.59;;;11.41;58.82
3917;BME280;1973;50.518;7.318;2023-04-06T09:45:18;100984.78;;;11.58;58.17
3917;BME280;1973;50.518;7.318;2023-04-06T09:47:45;100984.34;;;11.74;58.39
3917;BME280;1973;50.518;7.318;2023-04-06T09:50:13;100971.28;;;11.94;57.25
3917;BME280;1973;50.518;7.318;2023-04-06T09:52:47;100966.75;;;12.06;56.69
3917;BME280;1973;50.518;7.318;2023-04-06T09:55:23;100962.75;;;12.02;54.42
3917;BME280;1973;50.518;7.318;2023-04-06T09:57:57;100968.72;;;11.99;55.17
3917;BME280;1973;50.518;7.318;2023-04-06T10:00:25;100956.47;;;12.20;55.68
3917;BME280;1973;50.518;7.318;2023-04-06T10:03:07;100956.69;;;12.50;54.76
3917;BME280;1973;50.518;7.318;2023-04-06T10:05:59;100955.56;;;12.57;52.70
3917;BME280;1973;50.518;7.318;2023-04-06T10:08:29;100956.94;;;12.73;54.37
3917;BME280;1973;50.518;7.318;2023-04-06T10:10:58;100944.06;;;12.85;53.03
3917;BME280;1973;50.518;7.318;2023-04-06T10:13:27;100949.00;;;13.01;52.39
3917;BME280;1973;50.518;7.318;2023-04-06T10:15:54;100939.53;;;13.15;52.14
3917;BME280;1973;50.518;7.318;2023-04-06T10:18:21;100941.53;;;13.27;51.33
3917;BME280;1973;50.518;7.318;2023-04-06T10:20:51;100938.09;;;13.31;50.78
3917;BME280;1973;50.518;7.318;2023-04-06T10:25:57;100943.94;;;13.41;48.66
3917;BME280;1973;50.518;7.318;2023-04-06T10:28:24;100951.06;;;13.49;49.68
3917;BME280;1973;50.518;7.318;2023-04-06T10:30:59;100949.59;;;13.64;48.30
3917;BME280;1973;50.518;7.318;2023-04-06T10:33:26;100961.59;;;13.58;49.22
3917;BME280;1973;50.518;7.318;2023-04-06T10:35:53;100955.38;;;13.63;48.83
3917;BME280;1973;50.518;7.318;2023-04-06T10:38:33;100944.09;;;13.94;46.28
3917;BME280;1973;50.518;7.318;2023-04-06T10:41:04;100938.91;;;14.28;46.97
3917;BME280;1973;50.518;7.318;2023-04-06T10:43:35;100933.72;;;14.61;45.59
3917;BME280;1973;50.518;7.318;2023-04-06T10:46:04;100929.88;;;14.62;45.57
3917;BME280;1973;50.518;7.318;2023-04-06T10:48:44;100933.97;;;14.83;41.16
3917;BME280;1973;50.518;7.318;2023-04-06T10:51:17;100940.03;;;14.91;43.94
3917;BME280;1973;50.518;7.318;2023-04-06T10:53:45;100936.16;;;14.69;42.02
3917;BME280;1973;50.518;7.318;2023-04-06T10:56:17;100926.28;;;14.73;42.09
3917;BME280;1973;50.518;7.318;2023-04-06T10:58:45;100927.72;;;14.87;41.89
3917;BME280;1973;50.518;7.318;2023-04-06T11:01:15;100935.41;;;14.97;41.51
3917;BME280;1973;50.518;7.318;2023-04-06T11:03:46;100925.81;;;15.11;41.48
3917;BME280;1973;50.518;7.318;2023-04-06T11:06:24;100924.81;;;14.82;39.20
3917;BME280;1973;50.518;7.318;2023-04-06T11:08:51;100940.72;;;14.52;40.89
3917;BME280;1973;50.518;7.318;2023-04-06T11:11:20;100935.91;;;14.82;41.12
3917;BME280;1973;50.518;7.318;2023-04-06T11:13:56;100938.44;;;14.84;39.94
3917;BME280;1973;50.518;7.318;2023-04-06T11:16:25;100930.22;;;15.00;40.06
3917;BME280;1973;50.518;7.318;2023-04-06T11:19:00;100928.94;;;15.15;39.40
3917;BME280;1973;50.518;7.318;2023-04-06T11:21:44;100929.66;;;15.10;38.46
3917;BME280;1973;50.518;7.318;2023-04-06T11:24:20;100925.53;;;15.01;39.92
3917;BME280;1973;50.518;7.318;2023-04-06T11:26:57;100922.19;;;14.87;38.18
3917;BME280;1973;50.518;7.318;2023-04-06T11:29:29;100918.19;;;14.83;39.10
3917;BME280;1973;50.518;7.318;2023-04-06T11:32:03;100923.97;;;14.58;39.64
3917;BME280;1973;50.518;7.318;2023-04-06T11:34:32;100912.41;;;14.61;39.95
3917;BME280;1973;50.518;7.318;2023-04-06T11:37:00;100902.88;;;14.69;40.37
3917;BME280;1973;50.518;7.318;2023-04-06T11:39:28;100906.88;;;14.73;40.01
3917;BME280;1973;50.518;7.318;2023-04-06T11:42:02;100918.06;;;14.55;39.71
3917;BME280;1973;50.518;7.318;2023-04-06T11:44:34;100913.44;;;14.49;40.23
3917;BME280;1973;50.518;7.318;2023-04-06T11:47:02;100911.06;;;14.64;40.43
3917;BME280;1973;50.518;7.318;2023-04-06T11:49:30;100908.78;;;14.73;40.54
3917;BME280;1973;50.518;7.318;2023-04-06T11:51:58;100908.19;;;14.71;40.42
3917;BME280;1973;50.518;7.318;2023-04-06T11:54:37;100905.78;;;14.74;39.38
3917;BME280;1973;50.518;7.318;2023-04-06T11:57:05;100894.81;;;14.79;40.06
3917;BME280;1973;50.518;7.318;2023-04-06T11:59:32;100906.53;;;14.81;39.82
3917;BME280;1973;50.518;7.318;2023-04-06T12:01:59;100910.59;;;14.90;39.75
3917;BME280;1973;50.518;7.318;2023-04-06T12:04:26;100894.44;;;14.99;39.78
3917;BME280;1973;50.518;7.318;2023-04-06T12:06:52;100906.97;;;15.01;39.29
3917;BME280;1973;50.518;7.318;2023-04-06T12:09:19;100892.38;;;15.18;39.09
3917;BME280;1973;50.518;7.318;2023-04-06T12:11:46;100899.50;;;15.14;38.69
3917;BME280;1973;50.518;7.318;2023-04-06T12:14:13;100898.78;;;15.06;38.53
3917;BME280;1973;50.518;7.318;2023-04-06T12:16:40;100894.28;;;15.52;38.56
3917;BME280;1973;50.518;7.318;2023-04-06T12:19:06;100893.47;;;15.68;37.95
3917;BME280;1973;50.518;7.318;2023-04-06T12:21:34;100886.53;;;15.82;37.99
3917;BME280;1973;50.518;7.318;2023-04-06T12:24:04;100891.13;;;15.88;37.30
3917;BME280;1973;50.518;7.318;2023-04-06T12:26:32;100883.84;;;16.16;37.34
3917;BME280;1973;50.518;7.318;2023-04-06T12:28:59;100882.53;;;15.90;36.96
3917;BME280;1973;50.518;7.318;2023-04-06T12:31:34;100879.47;;;16.20;37.04
3917;BME280;1973;50.518;7.318;2023-04-06T12:34:03;100883.44;;;16.24;36.74
3917;BME280;1973;50.518;7.318;2023-04-06T12:36:30;100877.88;;;16.24;36.48
3917;BME280;1973;50.518;7.318;2023-04-06T12:38:58;100874.44;;;16.50;36.59
3917;BME280;1973;50.518;7.318;2023-04-06T12:41:24;100894.59;;;15.95;37.14
3917;BME280;1973;50.518;7.318;2023-04-06T12:43:51;100884.56;;;15.94;37.19
3917;BME280;1973;50.518;7.318;2023-04-06T12:46:18;100884.88;;;15.81;37.44
3917;BME280;1973;50.518;7.318;2023-04-06T12:48:44;100887.88;;;15.80;37.42
3917;BME280;1973;50.518;7.318;2023-04-06T12:51:11;100888.13;;;15.50;37.54
3917;BME280;1973;50.518;7.318;2023-04-06T12:53:37;100880.25;;;15.58;37.54
3917;BME280;1973;50.518;7.318;2023-04-06T12:56:12;100892.22;;;15.36;38.07
3917;BME280;1973;50.518;7.318;2023-04-06T12:58:39;100891.72;;;15.39;38.19
3917;BME280;1973;50.518;7.318;2023-04-06T13:01:08;100877.91;;;15.16;37.95
3917;BME280;1973;50.518;7.318;2023-04-06T13:03:35;100883.94;;;15.01;38.32
3917;BME280;1973;50.518;7.318;2023-04-06T13:06:02;100880.59;;;14.87;38.48
3917;BME280;1973;50.518;7.318;2023-04-06T13:08:29;100878.53;;;14.94;38.33
3917;BME280;1973;50.518;7.318;2023-04-06T13:10:55;100871.44;;;14.87;38.48
3917;BME280;1973;50.518;7.318;2023-04-06T13:13:27;100865.88;;;14.87;38.77
3917;BME280;1973;50.518;7.318;2023-04-06T13:15:54;100880.59;;;14.64;39.07
3917;BME280;1973;50.518;7.318;2023-04-06T13:18:24;100873.00;;;14.59;39.17
3917;BME280;1973;50.518;7.318;2023-04-06T13:20:50;100883.47;;;14.57;39.87
3917;BME280;1973;50.518;7.318;2023-04-06T13:23:17;100890.84;;;14.52;39.08
3917;BME280;1973;50.518;7.318;2023-04-06T13:25:43;100890.47;;;14.48;38.46
3917;BME280;1973;50.518;7.318;2023-04-06T13:28:10;100886.22;;;14.34;38.18
3917;BME280;1973;50.518;7.318;2023-04-06T13:30:37;100889.72;;;14.41;38.06
3917;BME280;1973;50.518;7.318;2023-04-06T13:33:03;100879.00;;;14.45;37.39
3917;BME280;1973;50.518;7.318;2023-04-06T13:35:31;100882.75;;;14.50;37.44
3917;BME280;1973;50.518;7.318;2023-04-06T13:37:57;100885.16;;;14.47;37.73
3917;BME280;1973;50.518;7.318;2023-04-06T13:40:24;100882.88;;;14.44;38.21
3917;BME280;1973;50.518;7.318;2023-04-06T13:42:50;100889.69;;;14.30;38.87
3917;BME280;1973;50.518;7.318;2023-04-06T13:45:17;100887.84;;;14.24;39.21
3917;BME280;1973;50.518;7.318;2023-04-06T13:47:44;100881.47;;;14.23;39.50
3917;BME280;1973;50.518;7.318;2023-04-06T13:50:11;100887.13;;;14.28;39.68
3917;BME280;1973;50.518;7.318;2023-04-06T13:52:37;100888.91;;;14.41;39.60
3917;BME280;1973;50.518;7.318;2023-04-06T13:55:04;100891.09;;;14.21;40.42
3917;BME280;1973;50.518;7.318;2023-04-06T13:57:30;100903.97;;;14.27;40.36
3917;BME280;1973;50.518;7.318;2023-04-06T13:59:57;100907.03;;;13.95;40.86
3917;BME280;1973;50.518;7.318;2023-04-06T14:02:23;100915.75;;;13.81;41.26
3917;BME280;1973;50.518;7.318;2023-04-06T14:04:53;100898.50;;;13.67;41.62
3917;BME280;1973;50.518;7.318;2023-04-06T14:07:20;100916.88;;;13.61;41.62
3917;BME280;1973;50.518;7.318;2023-04-06T14:09:49;100918.09;;;13.65;41.75
3917;BME280;1973;50.518;7.318;2023-04-06T14:12:15;100920.47;;;13.62;42.10
3917;BME280;1973;50.518;7.318;2023-04-06T14:14:42;100898.03;;;13.70;42.60
3917;BME280;1973;50.518;7.318;2023-04-06T14:17:08;100905.84;;;13.73;42.48
3917;BME280;1973;50.518;7.318;2023-04-06T14:19:35;100900.16;;;13.68;42.28
3917;BME280;1973;50.518;7.318;2023-04-06T14:22:02;100895.47;;;13.69;42.38
3917;BME280;1973;50.518;7.318;2023-04-06T14:24:28;100896.94;;;13.71;42.62
3917;BME280;1973;50.518;7.318;2023-04-06T14:26:55;100909.56;;;13.67;43.25
3917;BME280;1973;50.518;7.318;2023-04-06T14:29:22;100919.84;;;13.60;43.70
3917;BME280;1973;50.518;7.318;2023-04-06T14:31:49;100904.94;;;13.61;43.59
3917;BME280;1973;50.518;7.318;2023-04-06T14:34:15;100911.41;;;13.55;43.78
3917;BME280;1973;50.518;7.318;2023-04-06T14:36:43;100904.94;;;13.61;43.94
3917;BME280;1973;50.518;7.318;2023-04-06T14:39:09;100900.72;;;13.58;44.05
3917;BME280;1973;50.518;7.318;2023-04-06T14:41:36;100901.13;;;13.62;44.24
3917;BME280;1973;50.518;7.318;2023-04-06T14:44:03;100895.88;;;13.54;44.51
3917;BME280;1973;50.518;7.318;2023-04-06T14:46:29;100900.81;;;13.52;44.62
3917;BME280;1973;50.518;7.318;2023-04-06T14:48:57;100916.13;;;13.36;45.33
3917;BME280;1973;50.518;7.318;2023-04-06T14:51:25;100922.50;;;13.19;45.76
3917;BME280;1973;50.518;7.318;2023-04-06T14:53:54;100926.41;;;13.11;46.39
3917;BME280;1973;50.518;7.318;2023-04-06T14:56:22;100930.13;;;12.98;47.59
3917;BME280;1973;50.518;7.318;2023-04-06T14:58:50;100921.50;;;12.88;48.13
3917;BME280;1973;50.518;7.318;2023-04-06T15:01:18;100924.34;;;12.82;49.01
3917;BME280;1973;50.518;7.318;2023-04-06T15:03:45;100934.53;;;12.81;49.51
3917;BME280;1973;50.518;7.318;2023-04-06T15:06:13;100925.56;;;12.61;50.19
3917;BME280;1973;50.518;7.318;2023-04-06T15:08:43;100932.00;;;12.55;50.98
3917;BME280;1973;50.518;7.318;2023-04-06T15:11:11;100930.44;;;12.41;52.39
3917;BME280;1973;50.518;7.318;2023-04-06T15:13:39;100932.81;;;12.37;52.82
3917;BME280;1973;50.518;7.318;2023-04-06T15:16:06;100930.03;;;12.37;53.28
3917;BME280;1973;50.518;7.318;2023-04-06T15:18:34;100920.63;;;12.45;53.46
3917;BME280;1973;50.518;7.318;2023-04-06T15:21:01;100916.00;;;12.39;54.50
3917;BME280;1973;50.518;7.318;2023-04-06T15:23:28;100924.72;;;12.36;55.45
3917;BME280;1973;50.518;7.318;2023-04-06T15:25:58;100928.47;;;12.16;56.81
3917;BME280;1973;50.518;7.318;2023-04-06T15:28:25;100935.34;;;12.07;57.66
3917;BME280;1973;50.518;7.318;2023-04-06T15:30:53;100931.13;;;11.98;59.38
3917;BME280;1973;50.518;7.318;2023-04-06T15:33:20;100930.28;;;11.98;60.78
3917;BME280;1973;50.518;7.318;2023-04-06T15:35:47;100918.06;;;11.87;62.30
3917;BME280;1973;50.518;7.318;2023-04-06T15:38:14;100920.50;;;12.02;61.79
3917;BME280;1973;50.518;7.318;2023-04-06T15:40:45;100920.44;;;12.08;63.34
3917;BME280;1973;50.518;7.318;2023-04-06T15:43:13;100922.16;;;12.09;62.66
3917;BME280;1973;50.518;7.318;2023-04-06T15:45:40;100925.28;;;11.88;67.91
3917;BME280;1973;50.518;7.318;2023-04-06T15:48:07;100930.44;;;11.71;70.02
3917;BME280;1973;50.518;7.318;2023-04-06T15:50:34;100931.75;;;11.62;72.70
3917;BME280;1973;50.518;7.318;2023-04-06T15:53:01;100929.66;;;11.51;75.22
3917;BME280;1973;50.518;7.318;2023-04-06T15:55:28;100928.56;;;11.59;73.92
3917;BME280;1973;50.518;7.318;2023-04-06T15:57:54;100928.78;;;11.64;72.37
3917;BME280;1973;50.518;7.318;2023-04-06T16:00:21;100924.75;;;11.60;73.04
3917;BME280;1973;50.518;7.318;2023-04-06T16:02:48;100919.41;;;11.65;72.14
3917;BME280;1973;50.518;7.318;2023-04-06T16:05:14;100947.69;;;11.54;77.29
3917;BME280;1973;50.518;7.318;2023-04-06T16:07:41;100939.91;;;11.38;82.74
3917;BME280;1973;50.518;7.318;2023-04-06T16:10:08;100939.91;;;11.38;84.79
3917;BME280;1973;50.518;7.318;2023-04-06T16:12:35;100933.97;;;11.41;86.60
3917;BME280;1973;50.518;7.318;2023-04-06T16:15:01;100949.69;;;11.20;89.97
3917;BME280;1973;50.518;7.318;2023-04-06T16:17:28;100940.56;;;11.20;93.10
3917;BME280;1973;50.518;7.318;2023-04-06T16:19:54;100940.81;;;11.18;94.30
3917;BME280;1973;50.518;7.318;2023-04-06T16:22:21;100937.44;;;11.03;99.37
3917;BME280;1973;50.518;7.318;2023-04-06T16:24:47;100945.72;;;10.97;100.00
3917;BME280;1973;50.518;7.318;2023-04-06T16:27:14;100943.84;;;10.97;100.00
3917;BME280;1973;50.518;7.318;2023-04-06T16:29:41;100944.47;;;10.93;100.00
3917;BME280;1973;50.518;7.318;2023-04-06T16:32:07;100943.84;;;10.84;100.00
3917;BME280;1973;50.518;7.318;2023-04-06T16:34:37;100951.06;;;10.65;100.00
3917;BME280;1973;50.518;7.318;2023-04-06T16:37:04;100951.47;;;10.62;100.00
3917;BME280;1973;50.518;7.318;2023-04-06T16:39:30;100942.81;;;10.59;100.00
3917;BME280;1973;50.518;7.318;2023-04-06T16:41:57;100952.31;;;10.50;100.00
3917;BME280;1973;50.518;7.318;2023-04-06T16:44:24;100952.94;;;10.25;100.00
3917;BME280;1973;50.518;7.318;2023-04-06T16:46:52;100949.34;;;10.32;100.00
3917;BME280;1973;50.518;7.318;2023-04-06T16:49:18;100951.25;;;10.24;100.00
3917;BME280;1973;50.518;7.318;2023-04-06T16:51:46;100956.31;;;10.27;100.00
3917;BME280;1973;50.518;7.318;2023-04-06T16:54:15;100962.91;;;10.27;100.00
3917;BME280;1973;50.518;7.318;2023-04-06T16:56:41;100953.19;;;10.31;100.00
3917;BME280;1973;50.518;7.318;2023-04-06T16:59:08;100950.63;;;10.29;100.00
3917;BME280;1973;50.518;7.318;2023-04-06T17:01:34;100954.00;;;10.24;100.00
3917;BME280;1973;50.518;7.318;2023-04-06T17:04:01;100952.72;;;10.20;100.00
3917;BME280;1973;50.518;7.318;2023-04-06T17:06:28;100952.28;;;10.17;100.00
3917;BME280;1973;50.518;7.318;2023-04-06T17:08:54;100959.44;;;10.11;100.00
3917;BME280;1973;50.518;7.318;2023-04-06T17:11:21;100952.00;;;10.05;100.00
3917;BME280;1973;50.518;7.318;2023-04-06T17:14:01;100961.34;;;10.04;100.00
3917;BME280;1973;50.518;7.318;2023-04-06T17:16:27;100959.41;;;9.98;100.00
3917;BME280;1973;50.518;7.318;2023-04-06T17:18:55;100956.03;;;9.96;100.00
3917;BME280;1973;50.518;7.318;2023-04-06T17:21:22;100950.28;;;9.91;100.00
3917;BME280;1973;50.518;7.318;2023-04-06T17:23:49;100957.69;;;9.91;100.00
3917;BME280;1973;50.518;7.318;2023-04-06T17:26:15;100949.66;;;9.89;100.00
3917;BME280;1973;50.518;7.318;2023-04-06T17:28:42;100956.41;;;9.80;100.00
3917;BME280;1973;50.518;7.318;2023-04-06T17:31:09;100961.69;;;9.75;100.00
3917;BME280;1973;50.518;7.318;2023-04-06T17:33:40;100959.56;;;9.70;100.00
3917;BME280;1973;50.518;7.318;2023-04-06T17:36:07;100971.56;;;9.63;100.00
3917;BME280;1973;50.518;7.318;2023-04-06T17:38:36;100964.38;;;9.62;100.00
3917;BME280;1973;50.518;7.318;2023-04-06T17:41:03;100964.78;;;9.59;100.00
3917;BME280;1973;50.518;7.318;2023-04-06T17:43:32;100963.94;;;9.58;100.00
3917;BME280;1973;50.518;7.318;2023-04-06T17:45:59;100963.09;;;9.58;100.00
3917;BME280;1973;50.518;7.318;2023-04-06T17:48:25;100957.59;;;9.58;100.00
3917;BME280;1973;50.518;7.318;2023-04-06T17:50:52;100953.78;;;9.59;100.00
3917;BME280;1973;50.518;7.318;2023-04-06T17:53:19;100957.59;;;9.58;100.00
3917;BME280;1973;50.518;7.318;2023-04-06T17:55:45;100956.09;;;9.55;100.00
3917;BME280;1973;50.518;7.318;2023-04-06T17:58:12;100954.41;;;9.54;100.00
3917;BME280;1973;50.518;7.318;2023-04-06T18:00:39;100958.84;;;9.55;100.00
3917;BME280;1973;50.518;7.318;2023-04-06T18:03:05;100964.16;;;9.57;100.00
3917;BME280;1973;50.518;7.318;2023-04-06T18:05:32;100970.28;;;9.59;100.00
3917;BME280;1973;50.518;7.318;2023-04-06T18:07:58;100967.28;;;9.54;100.00
3917;BME280;1973;50.518;7.318;2023-04-06T18:10:25;100960.13;;;9.53;100.00
3917;BME280;1973;50.518;7.318;2023-04-06T18:12:51;100961.34;;;9.50;100.00
3917;BME280;1973;50.518;7.318;2023-04-06T18:15:18;100967.28;;;9.47;100.00
3917;BME280;1973;50.518;7.318;2023-04-06T18:17:44;100959.88;;;9.48;100.00
3917;BME280;1973;50.518;7.318;2023-04-06T18:20:12;100969.38;;;9.45;100.00
3917;BME280;1973;50.518;7.318;2023-04-06T18:22:41;100968.53;;;9.45;100.00
3917;BME280;1973;50.518;7.318;2023-04-06T18:25:07;100971.47;;;9.43;100.00
3917;BME280;1973;50.518;7.318;2023-04-06T18:27:34;100969.31;;;9.39;100.00
3917;BME280;1973;50.518;7.318;2023-04-06T18:30:02;100969.75;;;9.36;100.00
3917;BME280;1973;50.518;7.318;2023-04-06T18:32:28;100973.94;;;9.32;100.00
3917;BME280;1973;50.518;7.318;2023-04-06T18:34:56;100969.31;;;9.32;100.00
3917;BME280;1973;50.518;7.318;2023-04-06T18:37:24;100977.75;;;9.31;100.00
3917;BME280;1973;50.518;7.318;2023-04-06T18:39:51;100975.41;;;9.27;100.00
3917;BME280;1973;50.518;7.318;2023-04-06T18:42:19;100973.72;;;9.26;100.00
3917;BME280;1973;50.518;7.318;2023-04-06T18:44:46;100970.53;;;9.23;100.00
3917;BME280;1973;50.518;7.318;2023-04-06T18:47:13;100970.72;;;9.21;100.00
3917;BME280;1973;50.518;7.318;2023-04-06T18:49:40;100976.03;;;9.23;100.00
3917;BME280;1973;50.518;7.318;2023-04-06T18:52:06;100974.75;;;9.19;100.00
3917;BME280;1973;50.518;7.318;2023-04-06T18:54:33;100969.25;;;9.19;100.00
3917;BME280;1973;50.518;7.318;2023-04-06T18:56:59;100977.25;;;9.20;100.00
3917;BME280;1973;50.518;7.318;2023-04-06T18:59:27;100977.25;;;9.20;100.00